• Join FlightAware (Why Join?)
  • Login
  • US Flag 
05:10AM EDT


 

Airport Tracker/Info


-or-


 

Live Flight TrackerFlight Track Log ✈ N860BA ✈ 23-Oct-2013 ✈ KFAT - KSAN

Flight Track Log - Related Links

Times and Time Zones

All times are in EDT time to prevent confusion due to time zone crossing. See the N860BA flight status page for this flight to view local times or setup timezone preferences in your user account.

Time Position Orientation Groundspeed Altitude Reporting Facility
EDT Latitude Longitude Course Direction KTS MPH feet Rate Location/Type
07:11PM 36.7911 -119.7447 294° West 151 174 900  Level Oakland Center
07:12PM 36.8125 -119.8056 294° West 212 244 3,000 2,160 Climbing Oakland Center
07:13PM 36.7528 -119.7981 174° South 246 283 5,400 2,400 Climbing Oakland Center
07:14PM 36.6917 -119.7428 144° Southeast 271 312 8,000 2,580 Climbing Oakland Center
07:15PM 36.6278 -119.6858 144° Southeast 279 321 10,700 2,700 Climbing Oakland Center
07:16PM 36.5367 -119.6331 155° Southeast 305 351 13,600 2,340 Climbing Oakland Center
07:17PM 36.4539 -119.5906 158° South 318 366 15,600 1,920 Climbing Oakland Center
07:18PM 36.3631 -119.5433 157° South 349 402 17,600 1,980 Climbing Oakland Center
07:19PM 36.2719 -119.4975 158° South 353 406 19,700 1,860 Climbing Oakland Center
07:20PM 36.1753 -119.4489 158° South 364 419 21,400 1,620 Climbing Oakland Center
07:21PM 36.0756 -119.3972 157° South 378 435 23,100 1,620 Climbing Oakland Center
07:22PM 35.9731 -119.3444 157° South 390 449 24,800 1,620 Climbing Oakland Center
07:23PM 35.8706 -119.2922 158° South 395 455 26,500 1,380 Climbing Oakland Center
07:24PM 35.8264 -119.2694 157° South 402 463 27,000 300 Climbing Los Angeles Center
07:25PM 35.6953 -119.2025 157° South 421 484 27,000  Level Los Angeles Center
07:26PM 35.5733 -119.1408 158° South 460 529 27,000  Level Los Angeles Center
07:27PM 35.4739 -119.0900 157° South 475 547 27,000  Level Los Angeles Center
07:28PM 35.2881 -119.0100 161° South 500 575 27,000  Level Los Angeles Center
07:29PM 35.1567 -118.9528 160° South 500 575 27,000  Level Los Angeles Center
07:30PM 35.0239 -118.8958 161° South 502 578 27,000  Level Los Angeles Center
07:31PM 34.9000 -118.8433 161° South 496 571 27,000  Level Los Angeles Center
07:32PM 34.7719 -118.7878 160° South 492 566 27,000  Level Los Angeles Center
07:33PM 34.6153 -118.7225 161° South 494 568 27,000  Level Los Angeles Center
07:34PM 34.4897 -118.6681 160° South 484 557 27,000  Level Los Angeles Center
07:35PM 34.3622 -118.6133 160° South 484 557 27,000  Level Los Angeles Center
07:36PM 34.2358 -118.5606 161° South 481 554 27,000  Level Los Angeles Center
07:37PM 34.1164 -118.4894 154° Southeast 491 565 27,000  Level Los Angeles Center
07:38PM 34.0144 -118.3819 139° Southeast 487 560 27,000  Level Los Angeles Center
07:40PM 33.8903 -118.2503 139° Southeast 488 562 27,000 -480 Level Los Angeles Center
07:41PM 33.7867 -118.1392 138° Southeast 487 560 26,100 -900 Descending Los Angeles Center
07:42PM 33.6856 -118.0336 139° Southeast 478 550 25,200 -900 Descending Los Angeles Center
07:43PM 33.5847 -117.9294 139° Southeast 475 547 24,300 -960 Descending Los Angeles Center
07:44PM 33.4853 -117.8275 139° Southeast 470 541 23,300 -1,200 Descending Los Angeles Center
07:45PM 33.3878 -117.7261 139° Southeast 464 534 21,900 -1,440 Descending Los Angeles Center
07:46PM 33.2911 -117.6267 139° Southeast 457 526 20,400 -1,800 Descending Los Angeles Center
07:46PM 33.2167 -117.5500 139° Southeast 452 520 18,900 -2,280 Descending Southern California TRACON
07:47PM 33.1333 -117.4667 140° Southeast 434 499 16,700 -2,460 Descending Southern California TRACON
07:48PM 33.0333 -117.3833 145° Southeast 392 451 14,000 -2,820 Descending Southern California TRACON
07:49PM 32.9500 -117.3167 146° Southeast 368 423 11,100 -2,820 Descending Southern California TRACON
07:50PM 32.8833 -117.2667 148° Southeast 298 343 8,600 -2,100 Descending Southern California TRACON
07:51PM 32.8481 -117.2444 152° Southeast 290 334 7,900 -1,380 Descending Los Angeles Center
07:52PM 32.7986 -117.1828 134° Southeast 265 305 6,300 -1,020 Descending Los Angeles Center
07:53PM 32.7806 -117.0936 104° East 245 282 5,900 -240 Descending Los Angeles Center
07:54PM 32.7675 -117.0231 102° East 227 261 5,900 -240 Level Los Angeles Center
07:55PM 32.7536 -116.9542 103° East 217 250 5,500 -480 Descending Los Angeles Center
07:56PM 32.7169 -116.9114 136° Southeast 212 244 5,000 -960 Descending Los Angeles Center
07:57PM 32.6842 -116.9783 240° Southwest 236 272 3,600 -600 Descending Los Angeles Center
07:58PM 32.6986 -117.0450 284° West 212 244 3,800 600 Climbing Los Angeles Center
07:59PM 32.7600 -117.0494 357° North 244 281 4,900 540 Climbing Los Angeles Center
08:00PM 32.7833 -116.9833 67° East 189 217 5,000  Climbing Southern California TRACON
08:01PM 32.7667 -116.9167 107° East 194 223 5,000 -60 Level Southern California TRACON
08:02PM 32.7525 -116.8731 111° Southeast 192 221 4,900 -60 Descending Los Angeles Center
08:03PM 32.7144 -116.8247 133° Southeast 191 220 4,900  Level Los Angeles Center
08:04PM 32.6653 -116.8417 196° South 187 215 4,900  Level Los Angeles Center
08:05PM 32.6333 -116.8833 228° Southwest 211 243 5,000 -60 Climbing Southern California TRACON
08:06PM 32.6667 -116.9333 308° West 184 212 4,800 -720 Descending Southern California TRACON
08:07PM 32.6833 -116.9833 292° West 157 181 3,600 -900 Descending Southern California TRACON
08:08PM 32.7000 -117.0167 301° West 143 165 3,000 -720 Descending Southern California TRACON
08:09PM 32.7000 -117.0667 270° West 133 153 2,200 -900 Descending Southern California TRACON
08:10PM 32.7167 -117.1000 301° West 127 146 1,300 -720 Descending Southern California TRACON
08:11PM 32.7167 -117.1500 270° West 121 139 800 -540 Descending Southern California TRACON
08:12PM 32.7281 -117.1678 307° West 127 146 400 -600 Descending Los Angeles Center